createdAt,value
2018-11-10T00:01:25.547Z,20.90
2018-11-10T00:03:55.407Z,20.63
2018-11-10T00:06:25.472Z,20.30
2018-11-10T00:08:55.332Z,19.93
2018-11-10T00:11:25.132Z,19.87
2018-11-10T00:13:54.857Z,20.70
2018-11-10T00:16:24.799Z,20.80
2018-11-10T00:18:54.665Z,20.10
2018-11-10T00:21:24.509Z,20.67
2018-11-10T00:23:54.391Z,19.87
2018-11-10T00:26:24.223Z,21.67
2018-11-10T00:28:53.969Z,20.87
2018-11-10T00:31:23.769Z,22.43
2018-11-10T00:33:54.406Z,21.03
2018-11-10T00:36:24.251Z,21.87
2018-11-10T00:38:54.161Z,19.60
2018-11-10T00:41:24.020Z,20.80
2018-11-10T00:43:54.040Z,21.43
2018-11-10T00:46:23.832Z,21.40
2018-11-10T00:48:53.732Z,21.13
2018-11-10T00:51:23.471Z,19.90
2018-11-10T00:53:53.263Z,20.00
2018-11-10T00:56:23.066Z,20.53
2018-11-10T00:58:52.887Z,19.47
2018-11-10T01:01:22.791Z,18.90
2018-11-10T01:03:52.773Z,18.57
2018-11-10T01:06:22.578Z,19.03
2018-11-10T01:08:53.151Z,18.40
2018-11-10T01:11:22.973Z,19.00
2018-11-10T01:13:52.818Z,18.50
2018-11-10T01:16:22.652Z,18.57
2018-11-10T01:18:52.329Z,18.07
2018-11-10T01:21:22.354Z,17.43
2018-11-10T01:23:52.218Z,17.77
2018-11-10T01:26:22.347Z,17.13
2018-11-10T01:28:52.192Z,16.67
2018-11-10T01:31:22.599Z,17.80
2018-11-10T01:33:52.398Z,16.90
2018-11-10T01:36:22.547Z,18.30
2018-11-10T01:38:52.512Z,17.73
2018-11-10T01:41:22.756Z,16.73
2018-11-10T01:43:52.678Z,17.07
2018-11-10T01:46:22.856Z,16.87
2018-11-10T01:48:52.811Z,17.33
2018-11-10T01:51:23.293Z,16.90
2018-11-10T01:53:53.016Z,16.50
2018-11-10T01:56:23.168Z,17.43
2018-11-10T01:58:53.009Z,18.47
2018-11-10T02:01:23.356Z,16.93
2018-11-10T02:03:53.286Z,16.77
2018-11-10T02:06:23.387Z,15.33
2018-11-10T02:08:53.187Z,15.53
2018-11-10T02:11:23.051Z,16.93
2018-11-10T02:13:52.782Z,16.87
2018-11-10T02:16:23.866Z,16.13
2018-11-10T02:18:53.656Z,15.80
2018-11-10T02:21:23.646Z,16.40
2018-11-10T02:23:53.469Z,16.33
2018-11-10T02:26:23.408Z,15.17
2018-11-10T02:28:53.170Z,16.13
2018-11-10T02:31:23.133Z,15.20
2018-11-10T02:33:52.983Z,15.27
2018-11-10T02:36:22.718Z,14.30
2018-11-10T02:38:52.667Z,14.43
2018-11-10T02:41:22.396Z,13.97
2018-11-10T02:43:52.233Z,13.27
2018-11-10T02:46:21.977Z,14.97
2018-11-10T02:48:51.725Z,13.87
2018-11-10T02:51:21.468Z,14.40
2018-11-10T02:53:51.111Z,13.70
2018-11-10T02:56:21.732Z,14.20
2018-11-10T02:58:51.558Z,14.30
2018-11-10T03:01:21.351Z,13.37
2018-11-10T03:03:51.175Z,13.37
2018-11-10T03:06:20.991Z,13.53
2018-11-10T03:08:50.821Z,12.93
2018-11-10T03:11:20.687Z,13.00
2018-11-10T03:13:50.508Z,13.60
2018-11-10T03:16:20.364Z,12.83
2018-11-10T03:18:50.226Z,13.67
2018-11-10T03:21:20.195Z,13.07
2018-11-10T03:23:49.921Z,11.90
2018-11-10T03:26:19.727Z,12.70
2018-11-10T03:28:49.385Z,12.67
2018-11-10T03:31:19.162Z,12.97
2018-11-10T03:33:48.872Z,12.73
2018-11-10T03:36:18.719Z,12.87
2018-11-10T03:38:48.466Z,13.63
2018-11-10T03:41:18.388Z,12.23
2018-11-10T03:43:48.143Z,14.10
2018-11-10T03:46:17.887Z,14.90
2018-11-10T03:48:47.735Z,15.03
2018-11-10T03:51:17.741Z,14.90
2018-11-10T03:53:48.444Z,14.30
2018-11-10T03:56:18.422Z,15.57
2018-11-10T03:58:48.682Z,14.57
2018-11-10T04:01:18.591Z,15.80
2018-11-10T04:03:48.626Z,15.23
2018-11-10T04:06:18.976Z,16.50
2018-11-10T04:08:48.851Z,15.20
2018-11-10T04:11:18.672Z,15.47
2018-11-10T04:13:48.370Z,15.93
2018-11-10T04:16:18.066Z,15.80
2018-11-10T04:18:47.925Z,15.30
2018-11-10T04:21:17.671Z,14.77
2018-11-10T04:23:47.371Z,15.77
2018-11-10T04:26:17.223Z,14.90
2018-11-10T04:28:46.926Z,15.93
2018-11-10T04:31:16.832Z,15.43
2018-11-10T04:33:46.584Z,15.30
2018-11-10T04:36:16.256Z,14.17
2018-11-10T04:38:46.186Z,15.27
2018-11-10T04:41:15.871Z,16.13
2018-11-10T04:43:45.655Z,16.17
2018-11-10T04:46:15.635Z,14.53
2018-11-10T04:48:45.363Z,14.93
2018-11-10T04:51:15.296Z,15.70
2018-11-10T04:53:45.066Z,14.83
2018-11-10T04:56:14.774Z,15.47
2018-11-10T04:58:44.482Z,14.07
2018-11-10T05:01:14.239Z,16.53
2018-11-10T05:03:43.980Z,14.93
2018-11-10T05:06:13.695Z,15.50
2018-11-10T05:08:43.415Z,15.60
2018-11-10T05:11:13.180Z,15.07
2018-11-10T05:13:42.913Z,15.73
2018-11-10T05:16:12.754Z,16.67
2018-11-10T05:18:42.496Z,15.30
2018-11-10T05:21:12.233Z,15.67
2018-11-10T05:23:41.981Z,16.30
2018-11-10T05:26:11.718Z,16.73
2018-11-10T05:28:41.794Z,17.27
2018-11-10T05:31:11.591Z,16.73
2018-11-10T05:33:41.807Z,16.03
2018-11-10T05:36:11.555Z,16.17
2018-11-10T05:38:41.795Z,15.83
2018-11-10T05:41:11.563Z,17.33
2018-11-10T05:43:41.670Z,16.40
2018-11-10T05:46:11.435Z,16.60
2018-11-10T05:48:41.600Z,15.77
2018-11-10T05:51:11.407Z,15.63
2018-11-10T05:53:41.628Z,17.27
2018-11-10T05:56:12.220Z,15.57
2018-11-10T05:58:42.476Z,16.00
2018-11-10T06:01:12.382Z,15.73
2018-11-10T06:03:42.692Z,15.07
2018-11-10T06:06:12.651Z,14.77
2018-11-10T06:08:43.004Z,15.07
2018-11-10T06:11:13.610Z,14.43
2018-11-10T06:13:44.054Z,14.20
2018-11-10T06:16:13.941Z,15.33
2018-11-10T06:18:44.388Z,14.07
2018-11-10T06:21:14.274Z,14.37
2018-11-10T06:23:44.780Z,14.03
2018-11-10T06:26:14.935Z,14.93
2018-11-10T06:28:45.382Z,13.17
2018-11-10T06:31:15.075Z,13.23
2018-11-10T06:33:45.355Z,13.43
2018-11-10T06:36:15.307Z,13.57
2018-11-10T06:38:45.642Z,13.53
2018-11-10T06:41:15.493Z,13.00
2018-11-10T06:43:46.261Z,12.07
2018-11-10T06:46:16.072Z,12.57
2018-11-10T06:48:46.302Z,11.57
2018-11-10T06:51:16.086Z,11.77
2018-11-10T06:53:46.240Z,10.77
2018-11-10T06:56:16.000Z,10.67
2018-11-10T06:58:46.016Z,10.60
2018-11-10T07:01:15.939Z,11.80
2018-11-10T07:03:45.766Z,10.00
2018-11-10T07:06:15.630Z,9.30
2018-11-10T07:08:45.809Z,10.00
2018-11-10T07:11:16.426Z,8.80
2018-11-10T07:13:46.466Z,9.50
2018-11-10T07:16:16.326Z,9.43
2018-11-10T07:18:46.289Z,9.60
2018-11-10T07:21:16.135Z,10.23
2018-11-10T07:23:45.951Z,10.50
2018-11-10T07:26:15.817Z,12.00
2018-11-10T07:28:45.540Z,11.90
2018-11-10T07:31:19.923Z,12.03
2018-11-10T07:33:50.321Z,12.13
2018-11-10T07:36:20.340Z,11.33
2018-11-10T07:38:50.616Z,12.40
2018-11-10T07:41:20.979Z,11.97
2018-11-10T07:43:51.170Z,12.17
2018-11-10T07:46:20.919Z,11.10
2018-11-10T07:48:51.051Z,12.33
2018-11-10T07:51:20.930Z,10.87
2018-11-10T07:53:50.954Z,10.53
2018-11-10T07:56:20.805Z,10.40
2018-11-10T07:58:51.131Z,10.97
2018-11-10T08:01:21.021Z,10.97
2018-11-10T08:03:51.125Z,10.23
2018-11-10T08:06:20.970Z,10.60
2018-11-10T08:08:51.101Z,10.33
2018-11-10T08:11:20.888Z,9.90
2018-11-10T08:13:51.119Z,9.50
2018-11-10T08:16:20.946Z,9.00
2018-11-10T08:18:51.097Z,8.83
2018-11-10T08:21:20.830Z,9.27
2018-11-10T08:23:50.606Z,9.00
2018-11-10T08:26:20.463Z,8.50
2018-11-10T08:28:50.334Z,8.50
2018-11-10T08:31:20.167Z,8.33
2018-11-10T08:33:50.048Z,8.27
2018-11-10T08:36:19.877Z,8.43
2018-11-10T08:38:50.489Z,8.07
2018-11-10T08:41:20.480Z,8.03
2018-11-10T08:43:50.244Z,8.63
2018-11-10T08:46:20.089Z,8.57
2018-11-10T08:48:50.008Z,8.80
2018-11-10T08:51:20.460Z,10.07
2018-11-10T08:53:50.310Z,10.00
2018-11-10T08:56:20.150Z,10.20
2018-11-10T08:58:50.011Z,10.80
2018-11-10T09:01:19.840Z,10.20
2018-11-10T09:03:49.702Z,11.20
2018-11-10T09:06:19.546Z,11.03
2018-11-10T09:08:49.400Z,10.90
2018-11-10T09:11:19.163Z,11.07
2018-11-10T09:13:48.949Z,11.67
2018-11-10T09:16:18.901Z,11.57
2018-11-10T09:18:48.977Z,12.07
2018-11-10T09:21:18.877Z,12.93
2018-11-10T09:23:48.649Z,13.30
2018-11-10T09:26:18.724Z,13.80
2018-11-10T09:28:49.469Z,14.53
2018-11-10T09:31:19.615Z,12.97
2018-11-10T09:33:49.588Z,12.83
2018-11-10T09:36:19.432Z,12.30
2018-11-10T09:38:49.580Z,13.37
2018-11-10T09:41:19.388Z,13.17
2018-11-10T09:43:49.190Z,13.53
2018-11-10T09:46:18.980Z,13.90
2018-11-10T09:48:48.759Z,13.43
2018-11-10T09:51:18.555Z,13.77
2018-11-10T09:53:48.394Z,14.73
2018-11-10T09:56:18.193Z,14.20
2018-11-10T09:58:48.058Z,14.10
2018-11-10T10:01:17.933Z,13.77
2018-11-10T10:03:47.668Z,14.03
2018-11-10T10:06:17.404Z,13.10
2018-11-10T10:08:47.276Z,13.17
2018-11-10T10:11:17.002Z,12.80
2018-11-10T10:13:46.851Z,13.20
2018-11-10T10:16:16.939Z,14.20
2018-11-10T10:18:46.635Z,15.10
2018-11-10T10:21:16.414Z,14.53
2018-11-10T10:23:46.224Z,14.67
2018-11-10T10:26:16.059Z,14.10
2018-11-10T10:28:45.951Z,14.67
2018-11-10T10:31:15.716Z,14.80
2018-11-10T10:33:45.494Z,14.73
2018-11-10T10:36:15.306Z,16.53
2018-11-10T10:38:45.168Z,15.53
2018-11-10T10:41:14.968Z,15.20
2018-11-10T10:43:44.869Z,15.80
2018-11-10T10:46:14.740Z,16.27
2018-11-10T10:48:44.731Z,17.30
2018-11-10T10:51:14.508Z,16.23
2018-11-10T10:53:44.473Z,17.17
2018-11-10T10:56:14.453Z,16.53
2018-11-10T10:58:44.208Z,16.67
2018-11-10T11:01:19.381Z,16.23
2018-11-10T11:03:51.152Z,17.13
2018-11-10T11:06:20.953Z,17.33
2018-11-10T11:08:50.790Z,18.93
2018-11-10T11:11:20.711Z,16.27
2018-11-10T11:13:50.468Z,18.07
2018-11-10T11:16:20.253Z,17.83
2018-11-10T11:18:50.142Z,16.60
2018-11-10T11:21:20.068Z,16.53
2018-11-10T11:23:49.828Z,17.70
2018-11-10T11:26:19.623Z,17.10
2018-11-10T11:28:49.428Z,17.30
2018-11-10T11:31:19.332Z,17.23
2018-11-10T11:33:49.175Z,17.40
2018-11-10T11:36:18.950Z,16.77
2018-11-10T11:38:48.773Z,16.80
2018-11-10T11:41:18.656Z,17.27
2018-11-10T11:43:48.358Z,17.63
2018-11-10T11:46:18.194Z,16.20
2018-11-10T11:48:48.068Z,16.93
2018-11-10T11:51:17.948Z,15.83
2018-11-10T11:53:48.048Z,17.33
2018-11-10T11:56:18.134Z,17.43
2018-11-10T11:58:48.102Z,16.87
2018-11-10T12:01:17.951Z,16.10
2018-11-10T12:03:48.081Z,17.37
2018-11-10T12:06:18.001Z,16.63
2018-11-10T12:08:48.068Z,16.80
2018-11-10T12:11:18.242Z,16.27
2018-11-10T12:13:48.053Z,15.17
2018-11-10T12:16:27.198Z,16.67
2018-11-10T12:18:47.714Z,15.67
2018-11-10T12:21:18.706Z,15.20
2018-11-10T12:23:48.635Z,15.17
2018-11-10T12:26:18.493Z,15.07
2018-11-10T12:28:48.428Z,15.43
2018-11-10T12:31:18.392Z,16.07
2018-11-10T12:33:48.084Z,15.10
2018-11-10T12:36:17.892Z,14.63
2018-11-10T12:38:47.870Z,14.63
2018-11-10T12:41:17.818Z,14.83
2018-11-10T12:43:47.715Z,14.33
2018-11-10T12:46:17.536Z,14.87
2018-11-10T12:48:47.332Z,14.60
2018-11-10T12:51:17.153Z,14.10
2018-11-10T12:53:47.053Z,14.10
2018-11-10T12:56:17.005Z,14.80
2018-11-10T12:58:46.880Z,14.90
2018-11-10T13:01:16.854Z,14.17
2018-11-10T13:03:46.829Z,14.23
2018-11-10T13:06:17.169Z,14.27
2018-11-10T13:08:46.932Z,14.67
2018-11-10T13:11:17.247Z,13.93
2018-11-10T13:13:47.008Z,13.83
2018-11-10T13:16:17.202Z,14.50
2018-11-10T13:18:47.112Z,14.40
2018-11-10T13:21:17.264Z,13.70
2018-11-10T13:23:47.114Z,13.57
2018-11-10T13:26:17.090Z,13.37
2018-11-10T13:28:47.753Z,13.23
2018-11-10T13:31:18.165Z,15.40
2018-11-10T13:33:48.226Z,13.67
2018-11-10T13:36:18.480Z,12.90
2018-11-10T13:38:48.404Z,13.30
2018-11-10T13:41:18.751Z,13.67
2018-11-10T13:43:48.816Z,13.43
2018-11-10T13:46:20.041Z,13.53
2018-11-10T13:48:56.579Z,14.03
2018-11-10T13:51:26.683Z,13.37
2018-11-10T13:53:56.530Z,13.23
2018-11-10T13:56:26.342Z,13.27
2018-11-10T13:58:56.236Z,12.67
2018-11-10T14:01:26.083Z,12.37
2018-11-10T14:03:55.953Z,12.33
2018-11-10T14:06:25.864Z,11.93
2018-11-10T14:08:55.628Z,12.60
2018-11-10T14:11:25.475Z,11.87
2018-11-10T14:13:55.351Z,12.13
2018-11-10T14:16:25.308Z,10.90
2018-11-10T14:18:55.297Z,11.93
2018-11-10T14:21:25.357Z,11.97
2018-11-10T14:23:55.294Z,11.17
2018-11-10T14:26:28.537Z,12.00
2018-11-10T14:28:58.477Z,11.10
2018-11-10T14:31:28.604Z,11.50
2018-11-10T14:33:58.455Z,10.83
2018-11-10T14:36:28.276Z,10.47
2018-11-10T14:38:58.155Z,11.30
2018-11-10T14:41:28.050Z,10.73
2018-11-10T14:43:58.042Z,11.53
2018-11-10T14:46:27.916Z,12.00
2018-11-10T14:48:57.651Z,12.27
2018-11-10T14:51:27.717Z,12.23
2018-11-10T14:53:57.604Z,12.70
2018-11-10T14:56:27.320Z,13.57
2018-11-10T14:58:57.313Z,13.87
2018-11-10T15:01:27.257Z,14.77
2018-11-10T15:03:57.087Z,13.03
2018-11-10T15:06:26.972Z,13.80
2018-11-10T15:08:56.954Z,14.43
2018-11-10T15:11:27.280Z,13.90
2018-11-10T15:13:57.144Z,15.43
2018-11-10T15:16:27.506Z,14.67
2018-11-10T15:18:57.446Z,16.23
2018-11-10T15:21:27.733Z,16.37
2018-11-10T15:23:57.590Z,15.57
2018-11-10T15:26:28.095Z,15.80
2018-11-10T15:28:58.172Z,17.43
2018-11-10T15:31:28.722Z,16.90
2018-11-10T15:33:58.771Z,18.20
2018-11-10T15:36:29.186Z,17.10
2018-11-10T15:38:59.316Z,16.50
2018-11-10T15:41:30.092Z,16.97
2018-11-10T15:44:00.462Z,17.33
2018-11-10T15:46:30.565Z,16.60
2018-11-10T15:49:00.523Z,18.00
2018-11-10T15:51:30.983Z,17.60
2018-11-10T15:54:00.905Z,17.90
2018-11-10T15:56:30.765Z,17.93
2018-11-10T15:59:00.775Z,17.20
2018-11-10T16:01:31.318Z,17.40
2018-11-10T16:04:01.319Z,18.73
2018-11-10T16:06:31.699Z,17.23
2018-11-10T16:09:02.413Z,16.90
2018-11-10T16:11:32.371Z,16.77
2018-11-10T16:14:02.252Z,17.50
2018-11-10T16:16:32.466Z,16.90
2018-11-10T16:19:02.344Z,17.37
2018-11-10T16:21:36.531Z,17.47
2018-11-10T16:24:06.554Z,17.47
2018-11-10T16:26:36.741Z,16.97
2018-11-10T16:29:06.616Z,16.73
2018-11-10T16:31:36.575Z,15.90
2018-11-10T16:34:06.411Z,17.33
2018-11-10T16:36:36.229Z,15.90
2018-11-10T16:39:08.418Z,16.63
2018-11-10T16:41:39.641Z,15.37
2018-11-10T16:44:09.560Z,16.40
2018-11-10T16:46:39.374Z,16.60
2018-11-10T16:49:09.224Z,16.70
2018-11-10T16:51:39.201Z,16.23
2018-11-10T16:54:09.033Z,15.13
2018-11-10T16:56:39.009Z,14.63
2018-11-10T16:59:09.269Z,15.10
2018-11-10T17:01:39.123Z,15.27
2018-11-10T17:04:08.823Z,15.90
2018-11-10T17:06:38.721Z,15.47
2018-11-10T17:09:11.871Z,14.90
2018-11-10T17:11:42.434Z,14.30
2018-11-10T17:14:12.633Z,15.07
2018-11-10T17:16:42.476Z,15.77
2018-11-10T17:19:12.282Z,13.70
2018-11-10T17:21:42.242Z,13.57
2018-11-10T17:24:12.132Z,14.13
2018-11-10T17:26:41.992Z,14.10
2018-11-10T17:29:11.841Z,14.17
2018-11-10T17:31:46.107Z,13.43
2018-11-10T17:34:16.055Z,13.53
2018-11-10T17:36:45.816Z,13.07
2018-11-10T17:39:15.951Z,12.87
2018-11-10T17:41:47.532Z,13.77
2018-11-10T17:44:17.637Z,14.50
2018-11-10T17:46:47.436Z,14.30
2018-11-10T17:49:17.341Z,12.83
2018-11-10T17:51:47.326Z,13.37
2018-11-10T17:54:17.409Z,13.80
2018-11-10T17:56:47.202Z,13.83
2018-11-10T17:59:17.065Z,13.23
2018-11-10T18:01:47.017Z,13.00
2018-11-10T18:04:16.867Z,12.87
2018-11-10T18:06:46.769Z,13.13
2018-11-10T18:09:16.676Z,11.97
2018-11-10T18:11:46.437Z,12.97
2018-11-10T18:14:16.320Z,12.53
2018-11-10T18:16:46.267Z,11.43
2018-11-10T18:19:16.451Z,11.50
2018-11-10T18:21:46.738Z,12.20
2018-11-10T18:24:16.895Z,12.50
2018-11-10T18:26:46.844Z,11.33
2018-11-10T18:29:16.960Z,11.87
2018-11-10T18:31:47.201Z,10.77
2018-11-10T18:34:17.313Z,11.00
2018-11-10T18:36:47.416Z,10.37
2018-11-10T18:39:17.428Z,10.67
2018-11-10T18:41:47.215Z,9.73
2018-11-10T18:44:17.365Z,10.10
2018-11-10T18:46:47.304Z,10.30
2018-11-10T18:49:17.196Z,9.60
2018-11-10T18:51:47.219Z,10.13
2018-11-10T18:54:17.538Z,9.73
2018-11-10T18:56:47.739Z,10.77
2018-11-10T18:59:17.894Z,10.10
2018-11-10T19:01:48.290Z,9.80
2018-11-10T19:04:18.155Z,10.23
2018-11-10T19:06:47.979Z,10.90
2018-11-10T19:09:17.739Z,10.70
2018-11-10T19:11:47.665Z,11.63
2018-11-10T19:14:17.517Z,10.43
2018-11-10T19:16:47.426Z,10.53
2018-11-10T19:19:17.257Z,11.27
2018-11-10T19:21:47.019Z,10.87
2018-11-10T19:24:16.869Z,10.20
2018-11-10T19:26:47.138Z,10.57
2018-11-10T19:29:17.055Z,10.67
2018-11-10T19:31:47.156Z,9.93
2018-11-10T19:34:17.063Z,10.27
2018-11-10T19:36:47.375Z,11.00
2018-11-10T19:39:17.243Z,10.60
2018-11-10T19:41:47.379Z,10.83
2018-11-10T19:44:17.200Z,10.53
2018-11-10T19:46:47.439Z,10.27
2018-11-10T19:49:17.338Z,10.80
2018-11-10T19:51:47.962Z,11.13
2018-11-10T19:54:17.833Z,10.47
2018-11-10T19:56:48.124Z,10.43
2018-11-10T19:59:18.283Z,9.83
2018-11-10T20:01:48.568Z,10.13
2018-11-10T20:04:18.762Z,10.17
2018-11-10T20:06:49.282Z,11.03
2018-11-10T20:09:19.116Z,10.27
2018-11-10T20:11:49.276Z,10.70
2018-11-10T20:14:19.264Z,11.40
2018-11-10T20:16:49.331Z,10.97
2018-11-10T20:19:20.536Z,10.47
2018-11-10T20:21:50.920Z,10.33
2018-11-10T20:24:21.007Z,9.97
2018-11-10T20:26:51.146Z,9.37
2018-11-10T20:29:21.032Z,10.70
2018-11-10T20:31:51.400Z,10.30
2018-11-10T20:34:21.301Z,10.13
2018-11-10T20:36:51.322Z,10.17
2018-11-10T20:39:21.316Z,10.50
2018-11-10T20:41:51.441Z,11.00
2018-11-10T20:44:21.290Z,11.00
2018-11-10T20:46:51.344Z,11.10
2018-11-10T20:49:21.103Z,10.77
2018-11-10T20:51:51.018Z,10.93
2018-11-10T20:54:20.791Z,10.90
2018-11-10T20:56:50.756Z,11.03
2018-11-10T20:59:20.514Z,12.03
2018-11-10T21:01:50.359Z,10.33
2018-11-10T21:04:20.224Z,10.37
2018-11-10T21:06:49.997Z,11.00
2018-11-10T21:09:19.874Z,10.63
2018-11-10T21:11:49.653Z,11.17
2018-11-10T21:14:19.434Z,10.93
2018-11-10T21:16:49.414Z,11.20
2018-11-10T21:19:19.224Z,11.10
2018-11-10T21:21:49.064Z,10.93
2018-11-10T21:24:18.918Z,11.80
2018-11-10T21:26:48.765Z,10.87
2018-11-10T21:29:18.616Z,11.97
2018-11-10T21:31:48.486Z,12.10
2018-11-10T21:34:18.335Z,11.47
2018-11-10T21:36:48.266Z,11.73
2018-11-10T21:39:18.182Z,11.27
2018-11-10T21:41:48.006Z,11.03
2018-11-10T21:44:17.984Z,10.30
2018-11-10T21:46:48.048Z,10.43
2018-11-10T21:49:18.035Z,9.33
2018-11-10T21:51:48.182Z,10.37
2018-11-10T21:54:18.112Z,9.93
2018-11-10T21:56:48.068Z,9.47
2018-11-10T21:59:18.147Z,9.87
2018-11-10T22:01:48.378Z,9.53
2018-11-10T22:04:18.599Z,9.17
2018-11-10T22:06:48.560Z,9.00
2018-11-10T22:09:18.600Z,9.43
2018-11-10T22:11:48.416Z,8.77
2018-11-10T22:14:18.380Z,8.90
2018-11-10T22:16:48.144Z,8.53
2018-11-10T22:19:18.075Z,8.63
2018-11-10T22:21:47.909Z,8.50
2018-11-10T22:24:17.820Z,8.80
2018-11-10T22:26:47.776Z,8.67
2018-11-10T22:29:17.548Z,7.80
2018-11-10T22:31:47.522Z,8.00
2018-11-10T22:34:17.379Z,7.20
2018-11-10T22:36:47.345Z,7.23
2018-11-10T22:39:17.234Z,7.40
2018-11-10T22:41:47.093Z,6.27
2018-11-10T22:44:16.871Z,7.03
2018-11-10T22:46:47.200Z,7.23
2018-11-10T22:49:17.294Z,6.60
2018-11-10T22:51:47.700Z,6.60
2018-11-10T22:54:18.075Z,5.93
2018-11-10T22:56:48.239Z,6.10
2018-11-10T22:59:18.456Z,5.90
2018-11-10T23:01:48.880Z,6.03
2018-11-10T23:04:19.104Z,5.40
2018-11-10T23:06:49.058Z,5.47
2018-11-10T23:09:19.733Z,4.90
2018-11-10T23:11:49.564Z,5.07
2018-11-10T23:14:19.457Z,4.90
2018-11-10T23:16:49.302Z,5.30
2018-11-10T23:19:19.076Z,4.93
2018-11-10T23:21:49.022Z,5.53
2018-11-10T23:24:19.138Z,4.70
2018-11-10T23:26:49.310Z,4.87
2018-11-10T23:29:19.330Z,4.83
2018-11-10T23:31:49.591Z,5.00
2018-11-10T23:34:19.349Z,4.73
2018-11-10T23:36:49.235Z,4.60
2018-11-10T23:39:19.137Z,4.83
2018-11-10T23:41:48.886Z,4.43
2018-11-10T23:44:18.658Z,4.43
2018-11-10T23:46:48.413Z,4.90
2018-11-10T23:49:18.263Z,4.67
2018-11-10T23:51:48.137Z,4.93
2018-11-10T23:54:17.948Z,5.17
2018-11-10T23:56:47.732Z,4.90
2018-11-10T23:59:17.490Z,5.30
